Chautauqua County-Jamestown Airport
KJHW : now visible

Airfield :











YOU CAN JOIN US ON...

 
LOGIN :

Register | Disclaimer

   EN    FR    IT 

 









Legend :    VFR   Marginal VFR   IFR   Intensive IFR   Very Intensive IFR
Visi :
Ceiling :
>= 8 km
>= 3000ft
5 to 8 km
1000 to 3000 ft
1500m to 5 km
500 to 1000 ft
800 to 1500m
200 to 500 ft
< 800m
< 200 ft
Symbols :   Thunderstorms  Fog  Heavy snow  Heavy precipitations  Wind > 20 kt






- Airport Elevation : 1723 ft


KJHW - Chautauqua County-Jamestown

CURRENT METAR :
  • 061022Z AUTO 31008KT 8SM SCT011 18/16 A2989 RMK AO2

EXPIRED METARs :
  • 061006Z AUTO 29014KT 9SM BKN011 18/17 A2989 RMK AO2
  • 060956Z AUTO 30007KT 10SM SCT011 18/17 A2988 RMK AO2 SLP113 T01830167
  • 060856Z AUTO 23005KT 6SM BR CLR 18/17 A2987 RMK AO2 SLP107 T01830172 55005

TAF KJHW
Valid from the 06 at 09:00 until the 07 at 06:00 UTC


060904Z 0609/0706 23005KT 6SM BR BKN250
FM061100 29005KT P6SM SCT090
FM062000 31009KT P6SM FEW250
FM062300 29008KT P6SM FEW250
FM070500 34005KT P6SM FEW090
KZOB FIR / North America



MET'MAP, your aeronautical weather chart ! - Copyright ORBIFLY December 2007 - Disclaimer

ORBIFLY MET'MAP TEAM :

Programming & Development : Alexandra Zaïnal
Concept & original design : Baudouin d'Aumeries
Assistance for programming : Marc-Olivier Méhu
Technical & hardware support : Manuel Goepfert

Contact : metmap@orbifly.com




SOURCES & CREDITS :

   NOAA       Earth
Advisory